sensor_id;sensor_type;location;lat;lon;timestamp;pressure;altitude;pressure_sealevel;temperature
67966;BMP280;54749;47.850;9.002;2023-05-24T00:00:04;96055.25;;;13.29
67966;BMP280;54749;47.850;9.002;2023-05-24T00:02:52;96044.09;;;13.20
67966;BMP280;54749;47.850;9.002;2023-05-24T00:05:19;96045.88;;;13.20
67966;BMP280;54749;47.850;9.002;2023-05-24T00:07:46;96053.47;;;13.20
67966;BMP280;54749;47.850;9.002;2023-05-24T00:10:13;96040.63;;;13.21
67966;BMP280;54749;47.850;9.002;2023-05-24T00:12:41;96023.41;;;13.25
67966;BMP280;54749;47.850;9.002;2023-05-24T00:15:08;96025.19;;;13.24
67966;BMP280;54749;47.850;9.002;2023-05-24T00:17:36;96021.81;;;13.24
67966;BMP280;54749;47.850;9.002;2023-05-24T00:20:10;96036.09;;;13.25
67966;BMP280;54749;47.850;9.002;2023-05-24T00:22:39;96027.31;;;13.29
67966;BMP280;54749;47.850;9.002;2023-05-24T00:25:07;96039.31;;;13.27
67966;BMP280;54749;47.850;9.002;2023-05-24T00:27:35;96047.63;;;13.29
67966;BMP280;54749;47.850;9.002;2023-05-24T00:30:04;96042.56;;;13.29
67966;BMP280;54749;47.850;9.002;2023-05-24T00:32:32;96044.41;;;13.27
67966;BMP280;54749;47.850;9.002;2023-05-24T00:34:59;96047.34;;;13.31
67966;BMP280;54749;47.850;9.002;2023-05-24T00:37:27;96028.91;;;13.30
67966;BMP280;54749;47.850;9.002;2023-05-24T00:39:55;96032.25;;;13.30
67966;BMP280;54749;47.850;9.002;2023-05-24T00:42:22;96036.28;;;13.32
67966;BMP280;54749;47.850;9.002;2023-05-24T00:44:49;96034.28;;;13.36
67966;BMP280;54749;47.850;9.002;2023-05-24T00:47:17;96038.16;;;13.40
67966;BMP280;54749;47.850;9.002;2023-05-24T00:49:45;96025.47;;;13.40
67966;BMP280;54749;47.850;9.002;2023-05-24T00:52:12;96028.00;;;13.40
67966;BMP280;54749;47.850;9.002;2023-05-24T00:54:40;96029.09;;;13.37
67966;BMP280;54749;47.850;9.002;2023-05-24T00:57:07;96018.75;;;13.30
67966;BMP280;54749;47.850;9.002;2023-05-24T00:59:34;96009.94;;;13.24
67966;BMP280;54749;47.850;9.002;2023-05-24T01:02:03;96005.25;;;13.20
67966;BMP280;54749;47.850;9.002;2023-05-24T01:04:31;96011.25;;;13.19
67966;BMP280;54749;47.850;9.002;2023-05-24T01:07:23;96015.66;;;13.17
67966;BMP280;54749;47.850;9.002;2023-05-24T01:10:16;96003.72;;;13.08
67966;BMP280;54749;47.850;9.002;2023-05-24T01:15:43;96011.88;;;13.02
67966;BMP280;54749;47.850;9.002;2023-05-24T01:18:24;96021.34;;;13.00
67966;BMP280;54749;47.850;9.002;2023-05-24T01:29:37;96009.56;;;12.99
67966;BMP280;54749;47.850;9.002;2023-05-24T01:32:05;96011.19;;;13.00
67966;BMP280;54749;47.850;9.002;2023-05-24T01:34:33;96010.25;;;13.01
67966;BMP280;54749;47.850;9.002;2023-05-24T01:37:00;96015.75;;;13.06
67966;BMP280;54749;47.850;9.002;2023-05-24T01:39:28;96010.91;;;13.03
67966;BMP280;54749;47.850;9.002;2023-05-24T01:42:11;96010.00;;;13.04
67966;BMP280;54749;47.850;9.002;2023-05-24T01:45:13;96019.47;;;13.02
67966;BMP280;54749;47.850;9.002;2023-05-24T01:47:57;96016.38;;;12.99
67966;BMP280;54749;47.850;9.002;2023-05-24T01:50:32;96014.25;;;13.04
67966;BMP280;54749;47.850;9.002;2023-05-24T01:53:06;95999.34;;;13.10
67966;BMP280;54749;47.850;9.002;2023-05-24T01:55:36;96009.91;;;13.15
67966;BMP280;54749;47.850;9.002;2023-05-24T01:58:05;96004.69;;;13.16
67966;BMP280;54749;47.850;9.002;2023-05-24T02:00:33;95998.31;;;13.22
67966;BMP280;54749;47.850;9.002;2023-05-24T02:03:01;96001.75;;;13.21
67966;BMP280;54749;47.850;9.002;2023-05-24T02:05:31;96002.97;;;13.17
67966;BMP280;54749;47.850;9.002;2023-05-24T02:07:58;95996.41;;;13.14
67966;BMP280;54749;47.850;9.002;2023-05-24T02:10:25;96004.84;;;13.15
67966;BMP280;54749;47.850;9.002;2023-05-24T02:12:52;95989.63;;;13.15
67966;BMP280;54749;47.850;9.002;2023-05-24T02:15:20;95994.53;;;13.16
67966;BMP280;54749;47.850;9.002;2023-05-24T02:17:47;95996.53;;;13.13
67966;BMP280;54749;47.850;9.002;2023-05-24T02:20:15;95994.69;;;13.15
67966;BMP280;54749;47.850;9.002;2023-05-24T02:22:43;95986.66;;;13.10
67966;BMP280;54749;47.850;9.002;2023-05-24T02:25:10;95981.31;;;13.13
67966;BMP280;54749;47.850;9.002;2023-05-24T02:27:37;95988.81;;;13.14
67966;BMP280;54749;47.850;9.002;2023-05-24T02:30:05;95992.28;;;13.13
67966;BMP280;54749;47.850;9.002;2023-05-24T02:32:33;95994.41;;;13.18
67966;BMP280;54749;47.850;9.002;2023-05-24T02:35:01;95990.03;;;13.20
67966;BMP280;54749;47.850;9.002;2023-05-24T02:37:28;95982.16;;;13.23
67966;BMP280;54749;47.850;9.002;2023-05-24T02:39:56;95996.97;;;13.18
67966;BMP280;54749;47.850;9.002;2023-05-24T02:42:23;95998.03;;;13.15
67966;BMP280;54749;47.850;9.002;2023-05-24T02:44:50;95990.94;;;13.19
67966;BMP280;54749;47.850;9.002;2023-05-24T02:47:18;95986.13;;;13.16
67966;BMP280;54749;47.850;9.002;2023-05-24T02:49:45;95991.19;;;13.16
67966;BMP280;54749;47.850;9.002;2023-05-24T02:52:12;95996.53;;;13.13
67966;BMP280;54749;47.850;9.002;2023-05-24T02:54:40;95995.34;;;13.17
67966;BMP280;54749;47.850;9.002;2023-05-24T02:57:07;95981.31;;;13.13
67966;BMP280;54749;47.850;9.002;2023-05-24T02:59:35;95984.00;;;13.12
67966;BMP280;54749;47.850;9.002;2023-05-24T03:02:02;95976.22;;;13.13
67966;BMP280;54749;47.850;9.002;2023-05-24T03:04:29;95974.09;;;13.09
67966;BMP280;54749;47.850;9.002;2023-05-24T03:06:57;95976.78;;;13.07
67966;BMP280;54749;47.850;9.002;2023-05-24T03:09:24;95972.47;;;13.08
67966;BMP280;54749;47.850;9.002;2023-05-24T03:11:51;95974.25;;;13.07
67966;BMP280;54749;47.850;9.002;2023-05-24T03:14:20;95979.81;;;13.01
67966;BMP280;54749;47.850;9.002;2023-05-24T03:16:50;95972.22;;;13.01
67966;BMP280;54749;47.850;9.002;2023-05-24T03:19:17;95972.88;;;13.03
67966;BMP280;54749;47.850;9.002;2023-05-24T03:21:46;95971.53;;;12.99
67966;BMP280;54749;47.850;9.002;2023-05-24T03:24:14;95962.56;;;12.96
67966;BMP280;54749;47.850;9.002;2023-05-24T03:26:41;95966.59;;;12.98
67966;BMP280;54749;47.850;9.002;2023-05-24T03:29:08;95980.75;;;13.00
67966;BMP280;54749;47.850;9.002;2023-05-24T03:31:38;95984.06;;;12.92
67966;BMP280;54749;47.850;9.002;2023-05-24T03:34:06;95965.63;;;12.90
67966;BMP280;54749;47.850;9.002;2023-05-24T03:36:35;95983.38;;;12.90
67966;BMP280;54749;47.850;9.002;2023-05-24T03:39:02;95981.34;;;12.84
67966;BMP280;54749;47.850;9.002;2023-05-24T03:41:36;95997.22;;;12.86
67966;BMP280;54749;47.850;9.002;2023-05-24T03:44:03;95986.69;;;12.81
67966;BMP280;54749;47.850;9.002;2023-05-24T03:46:30;95989.78;;;12.84
67966;BMP280;54749;47.850;9.002;2023-05-24T03:48:59;95995.38;;;12.88
67966;BMP280;54749;47.850;9.002;2023-05-24T03:51:26;95995.13;;;12.91
67966;BMP280;54749;47.850;9.002;2023-05-24T03:53:56;95996.19;;;12.88
67966;BMP280;54749;47.850;9.002;2023-05-24T03:56:25;96000.19;;;12.91
67966;BMP280;54749;47.850;9.002;2023-05-24T03:58:53;95992.47;;;12.92
67966;BMP280;54749;47.850;9.002;2023-05-24T04:01:20;95998.47;;;12.91
67966;BMP280;54749;47.850;9.002;2023-05-24T04:03:59;95986.31;;;12.95
67966;BMP280;54749;47.850;9.002;2023-05-24T04:06:28;95993.00;;;12.96
67966;BMP280;54749;47.850;9.002;2023-05-24T04:08:57;95999.44;;;12.99
67966;BMP280;54749;47.850;9.002;2023-05-24T04:11:25;95990.13;;;13.09
67966;BMP280;54749;47.850;9.002;2023-05-24T04:13:56;96000.56;;;13.25
67966;BMP280;54749;47.850;9.002;2023-05-24T04:16:23;95994.06;;;13.31
67966;BMP280;54749;47.850;9.002;2023-05-24T04:18:56;96007.91;;;13.18
67966;BMP280;54749;47.850;9.002;2023-05-24T04:21:23;96012.06;;;13.19
67966;BMP280;54749;47.850;9.002;2023-05-24T04:23:52;96011.03;;;13.31
67966;BMP280;54749;47.850;9.002;2023-05-24T04:26:19;95994.56;;;13.26
67966;BMP280;54749;47.850;9.002;2023-05-24T04:28:47;96012.06;;;13.19
67966;BMP280;54749;47.850;9.002;2023-05-24T04:31:14;96003.50;;;13.20
67966;BMP280;54749;47.850;9.002;2023-05-24T04:33:42;96008.00;;;13.08
67966;BMP280;54749;47.850;9.002;2023-05-24T04:36:09;96017.94;;;12.91
67966;BMP280;54749;47.850;9.002;2023-05-24T04:38:38;96015.34;;;12.72
67966;BMP280;54749;47.850;9.002;2023-05-24T04:41:06;96015.75;;;12.57
67966;BMP280;54749;47.850;9.002;2023-05-24T04:43:34;96013.59;;;12.53
67966;BMP280;54749;47.850;9.002;2023-05-24T04:46:01;96019.16;;;12.47
67966;BMP280;54749;47.850;9.002;2023-05-24T04:48:29;96014.63;;;12.41
67966;BMP280;54749;47.850;9.002;2023-05-24T04:50:56;96021.22;;;12.33
67966;BMP280;54749;47.850;9.002;2023-05-24T04:53:24;96025.22;;;12.35
67966;BMP280;54749;47.850;9.002;2023-05-24T04:55:51;96025.22;;;12.35
67966;BMP280;54749;47.850;9.002;2023-05-24T04:58:19;96024.94;;;12.29
67966;BMP280;54749;47.850;9.002;2023-05-24T05:00:46;96038.81;;;12.34
67966;BMP280;54749;47.850;9.002;2023-05-24T05:03:13;96036.13;;;12.46
67966;BMP280;54749;47.850;9.002;2023-05-24T05:05:40;96039.44;;;12.47
67966;BMP280;54749;47.850;9.002;2023-05-24T05:08:08;96038.66;;;12.46
67966;BMP280;54749;47.850;9.002;2023-05-24T05:10:35;96044.41;;;12.48
67966;BMP280;54749;47.850;9.002;2023-05-24T05:13:03;96040.69;;;12.52
67966;BMP280;54749;47.850;9.002;2023-05-24T05:15:30;96049.91;;;12.53
67966;BMP280;54749;47.850;9.002;2023-05-24T05:17:58;96040.44;;;12.55
67966;BMP280;54749;47.850;9.002;2023-05-24T05:20:26;96049.91;;;12.53
67966;BMP280;54749;47.850;9.002;2023-05-24T05:22:53;96050.97;;;12.51
67966;BMP280;54749;47.850;9.002;2023-05-24T05:25:20;96044.28;;;12.50
67966;BMP280;54749;47.850;9.002;2023-05-24T05:27:48;96050.97;;;12.51
67966;BMP280;54749;47.850;9.002;2023-05-24T05:30:15;96038.16;;;12.52
67966;BMP280;54749;47.850;9.002;2023-05-24T05:32:42;96043.34;;;12.51
67966;BMP280;54749;47.850;9.002;2023-05-24T05:35:09;96037.13;;;12.55
67966;BMP280;54749;47.850;9.002;2023-05-24T05:37:37;96035.75;;;12.51
67966;BMP280;54749;47.850;9.002;2023-05-24T05:40:05;96035.06;;;12.49
67966;BMP280;54749;47.850;9.002;2023-05-24T05:42:33;96045.38;;;12.57
67966;BMP280;54749;47.850;9.002;2023-05-24T05:45:00;96052.88;;;12.58
67966;BMP280;54749;47.850;9.002;2023-05-24T05:47:27;96040.31;;;12.57
67966;BMP280;54749;47.850;9.002;2023-05-24T05:49:54;96043.31;;;12.61
67966;BMP280;54749;47.850;9.002;2023-05-24T05:52:21;96024.38;;;12.65
67966;BMP280;54749;47.850;9.002;2023-05-24T05:54:48;96027.06;;;12.73
67966;BMP280;54749;47.850;9.002;2023-05-24T05:57:15;96029.25;;;12.78
67966;BMP280;54749;47.850;9.002;2023-05-24T05:59:45;96045.03;;;12.81
67966;BMP280;54749;47.850;9.002;2023-05-24T06:02:13;96027.00;;;12.84
67966;BMP280;54749;47.850;9.002;2023-05-24T06:04:40;96022.97;;;12.81
67966;BMP280;54749;47.850;9.002;2023-05-24T06:07:07;96039.97;;;12.81
67966;BMP280;54749;47.850;9.002;2023-05-24T06:09:34;96034.88;;;12.81
67966;BMP280;54749;47.850;9.002;2023-05-24T06:12:01;96032.75;;;12.86
67966;BMP280;54749;47.850;9.002;2023-05-24T06:14:29;96034.78;;;12.92
67966;BMP280;54749;47.850;9.002;2023-05-24T06:16:56;96038.94;;;12.93
67966;BMP280;54749;47.850;9.002;2023-05-24T06:19:25;96022.69;;;13.04
67966;BMP280;54749;47.850;9.002;2023-05-24T06:21:53;96035.78;;;13.09
67966;BMP280;54749;47.850;9.002;2023-05-24T06:24:20;96039.25;;;13.08
67966;BMP280;54749;47.850;9.002;2023-05-24T06:26:51;96033.38;;;13.08
67966;BMP280;54749;47.850;9.002;2023-05-24T06:29:18;96045.44;;;13.15
67966;BMP280;54749;47.850;9.002;2023-05-24T06:31:47;96059.47;;;13.19
67966;BMP280;54749;47.850;9.002;2023-05-24T06:34:16;96047.63;;;13.29
67966;BMP280;54749;47.850;9.002;2023-05-24T06:36:44;96050.16;;;13.29
67966;BMP280;54749;47.850;9.002;2023-05-24T06:39:13;96052.97;;;13.35
67966;BMP280;54749;47.850;9.002;2023-05-24T06:41:42;96038.56;;;13.45
67966;BMP280;54749;47.850;9.002;2023-05-24T06:44:09;96066.91;;;13.40
67966;BMP280;54749;47.850;9.002;2023-05-24T06:46:36;96075.84;;;13.44
67966;BMP280;54749;47.850;9.002;2023-05-24T06:49:03;96063.66;;;13.38
67966;BMP280;54749;47.850;9.002;2023-05-24T06:51:31;96066.34;;;13.37
67966;BMP280;54749;47.850;9.002;2023-05-24T06:53:59;96047.94;;;13.44
67966;BMP280;54749;47.850;9.002;2023-05-24T06:56:27;96073.31;;;13.44
67966;BMP280;54749;47.850;9.002;2023-05-24T06:58:55;96074.94;;;13.45
67966;BMP280;54749;47.850;9.002;2023-05-24T07:01:22;96076.94;;;13.42
67966;BMP280;54749;47.850;9.002;2023-05-24T07:03:49;96071.47;;;13.46
67966;BMP280;54749;47.850;9.002;2023-05-24T07:06:17;96084.28;;;13.45
67966;BMP280;54749;47.850;9.002;2023-05-24T07:08:44;96075.16;;;13.42
67966;BMP280;54749;47.850;9.002;2023-05-24T07:11:11;96081.88;;;13.43
67966;BMP280;54749;47.850;9.002;2023-05-24T07:13:38;96087.78;;;13.53
67966;BMP280;54749;47.850;9.002;2023-05-24T07:16:06;96071.50;;;13.65
67966;BMP280;54749;47.850;9.002;2023-05-24T07:18:33;96071.84;;;13.80
67966;BMP280;54749;47.850;9.002;2023-05-24T07:21:00;96072.00;;;13.97
67966;BMP280;54749;47.850;9.002;2023-05-24T07:23:27;96077.19;;;13.96
67966;BMP280;54749;47.850;9.002;2023-05-24T07:25:54;96088.44;;;14.12
67966;BMP280;54749;47.850;9.002;2023-05-24T07:28:22;96077.63;;;14.28
67966;BMP280;54749;47.850;9.002;2023-05-24T07:30:49;96086.44;;;14.43
67966;BMP280;54749;47.850;9.002;2023-05-24T07:33:17;96089.38;;;14.29
67966;BMP280;54749;47.850;9.002;2023-05-24T07:35:44;96075.88;;;14.38
67966;BMP280;54749;47.850;9.002;2023-05-24T07:38:17;96079.31;;;14.65
67966;BMP280;54749;47.850;9.002;2023-05-24T07:40:44;96075.97;;;14.73
67966;BMP280;54749;47.850;9.002;2023-05-24T07:43:11;96081.56;;;14.77
67966;BMP280;54749;47.850;9.002;2023-05-24T07:45:39;96086.94;;;14.83
67966;BMP280;54749;47.850;9.002;2023-05-24T07:48:07;96083.84;;;14.80
67966;BMP280;54749;47.850;9.002;2023-05-24T07:50:34;96083.59;;;14.73
67966;BMP280;54749;47.850;9.002;2023-05-24T07:53:01;96076.38;;;14.69
67966;BMP280;54749;47.850;9.002;2023-05-24T07:55:29;96081.97;;;14.72
67966;BMP280;54749;47.850;9.002;2023-05-24T07:57:56;96086.00;;;14.84
67966;BMP280;54749;47.850;9.002;2023-05-24T08:00:24;96078.22;;;14.95
67966;BMP280;54749;47.850;9.002;2023-05-24T08:02:51;96083.00;;;14.98
67966;BMP280;54749;47.850;9.002;2023-05-24T08:05:18;96081.16;;;15.00
67966;BMP280;54749;47.850;9.002;2023-05-24T08:07:45;96085.69;;;15.06
67966;BMP280;54749;47.850;9.002;2023-05-24T08:10:13;96082.34;;;15.41
67966;BMP280;54749;47.850;9.002;2023-05-24T08:12:40;96084.81;;;15.50
67966;BMP280;54749;47.850;9.002;2023-05-24T08:15:08;96070.13;;;15.44
67966;BMP280;54749;47.850;9.002;2023-05-24T08:17:37;96075.06;;;15.72
67966;BMP280;54749;47.850;9.002;2023-05-24T08:20:05;96078.00;;;15.50
67966;BMP280;54749;47.850;9.002;2023-05-24T08:22:34;96081.38;;;15.42
67966;BMP280;54749;47.850;9.002;2023-05-24T08:25:02;96080.75;;;15.40
67966;BMP280;54749;47.850;9.002;2023-05-24T08:27:29;96072.63;;;15.53
67966;BMP280;54749;47.850;9.002;2023-05-24T08:29:56;96077.34;;;15.75
67966;BMP280;54749;47.850;9.002;2023-05-24T08:32:23;96065.44;;;15.92
67966;BMP280;54749;47.850;9.002;2023-05-24T08:34:51;96077.97;;;16.03
67966;BMP280;54749;47.850;9.002;2023-05-24T08:37:29;96094.03;;;15.86
67966;BMP280;54749;47.850;9.002;2023-05-24T08:39:57;96087.19;;;15.87
67966;BMP280;54749;47.850;9.002;2023-05-24T08:42:26;96083.94;;;15.94
67966;BMP280;54749;47.850;9.002;2023-05-24T08:45:02;96074.78;;;16.01
67966;BMP280;54749;47.850;9.002;2023-05-24T08:47:30;96074.50;;;16.04
67966;BMP280;54749;47.850;9.002;2023-05-24T08:49:59;96075.75;;;16.17
67966;BMP280;54749;47.850;9.002;2023-05-24T08:52:28;96077.53;;;16.24
67966;BMP280;54749;47.850;9.002;2023-05-24T08:54:56;96080.59;;;16.11
67966;BMP280;54749;47.850;9.002;2023-05-24T08:57:27;96088.50;;;16.17
67966;BMP280;54749;47.850;9.002;2023-05-24T08:59:54;96092.34;;;16.21
67966;BMP280;54749;47.850;9.002;2023-05-24T09:02:22;96093.00;;;16.40
67966;BMP280;54749;47.850;9.002;2023-05-24T09:04:52;96081.28;;;16.13
67966;BMP280;54749;47.850;9.002;2023-05-24T09:07:20;96088.84;;;16.22
67966;BMP280;54749;47.850;9.002;2023-05-24T09:10:00;96088.78;;;16.14
67966;BMP280;54749;47.850;9.002;2023-05-24T09:12:31;96089.72;;;16.13
67966;BMP280;54749;47.850;9.002;2023-05-24T09:15:06;96083.53;;;16.15
67966;BMP280;54749;47.850;9.002;2023-05-24T09:17:34;96084.94;;;16.27
67966;BMP280;54749;47.850;9.002;2023-05-24T09:20:04;96102.25;;;16.41
67966;BMP280;54749;47.850;9.002;2023-05-24T09:22:33;96098.53;;;16.52
67966;BMP280;54749;47.850;9.002;2023-05-24T09:25:07;96106.84;;;16.37
67966;BMP280;54749;47.850;9.002;2023-05-24T09:27:35;96090.31;;;16.41
67966;BMP280;54749;47.850;9.002;2023-05-24T09:30:08;96103.59;;;16.45
67966;BMP280;54749;47.850;9.002;2023-05-24T09:32:36;96101.16;;;16.43
67966;BMP280;54749;47.850;9.002;2023-05-24T09:35:07;96093.72;;;16.49
67966;BMP280;54749;47.850;9.002;2023-05-24T09:37:35;96083.34;;;16.68
67966;BMP280;54749;47.850;9.002;2023-05-24T09:40:05;96088.63;;;16.49
67966;BMP280;54749;47.850;9.002;2023-05-24T09:42:34;96103.59;;;16.45
67966;BMP280;54749;47.850;9.002;2023-05-24T09:45:03;96101.88;;;16.70
67966;BMP280;54749;47.850;9.002;2023-05-24T09:47:37;96092.66;;;16.77
67966;BMP280;54749;47.850;9.002;2023-05-24T09:50:10;96101.69;;;16.88
67966;BMP280;54749;47.850;9.002;2023-05-24T09:52:38;96089.09;;;16.87
67966;BMP280;54749;47.850;9.002;2023-05-24T09:55:26;96102.25;;;16.75
67966;BMP280;54749;47.850;9.002;2023-05-24T09:58:07;96103.66;;;16.18
67966;BMP280;54749;47.850;9.002;2023-05-24T10:00:38;96106.03;;;16.20
67966;BMP280;54749;47.850;9.002;2023-05-24T10:03:09;96109.84;;;16.33
67966;BMP280;54749;47.850;9.002;2023-05-24T10:05:43;96116.09;;;16.21
67966;BMP280;54749;47.850;9.002;2023-05-24T10:08:11;96108.38;;;16.13
67966;BMP280;54749;47.850;9.002;2023-05-24T10:10:40;96125.13;;;16.16
67966;BMP280;54749;47.850;9.002;2023-05-24T10:13:08;96113.50;;;16.30
67966;BMP280;54749;47.850;9.002;2023-05-24T10:15:35;96113.75;;;16.11
67966;BMP280;54749;47.850;9.002;2023-05-24T10:18:03;96107.25;;;16.67
67966;BMP280;54749;47.850;9.002;2023-05-24T10:20:39;96096.72;;;17.04
67966;BMP280;54749;47.850;9.002;2023-05-24T10:23:14;96097.31;;;17.48
67966;BMP280;54749;47.850;9.002;2023-05-24T10:25:49;96096.34;;;17.81
67966;BMP280;54749;47.850;9.002;2023-05-24T10:28:19;96080.56;;;18.01
67966;BMP280;54749;47.850;9.002;2023-05-24T10:31:13;96093.09;;;18.20
67966;BMP280;54749;47.850;9.002;2023-05-24T10:33:43;96079.41;;;18.44
67966;BMP280;54749;47.850;9.002;2023-05-24T10:36:12;96076.19;;;18.34
67966;BMP280;54749;47.850;9.002;2023-05-24T10:38:40;96097.94;;;18.38
67966;BMP280;54749;47.850;9.002;2023-05-24T10:41:08;96089.03;;;17.94
67966;BMP280;54749;47.850;9.002;2023-05-24T10:43:35;96109.66;;;17.02
67966;BMP280;54749;47.850;9.002;2023-05-24T10:46:04;96117.47;;;16.67
67966;BMP280;54749;47.850;9.002;2023-05-24T10:48:36;96116.34;;;16.45
67966;BMP280;54749;47.850;9.002;2023-05-24T10:51:29;96125.06;;;16.25
67966;BMP280;54749;47.850;9.002;2023-05-24T10:54:12;96118.63;;;16.72
67966;BMP280;54749;47.850;9.002;2023-05-24T10:56:47;96120.44;;;16.80
67966;BMP280;54749;47.850;9.002;2023-05-24T10:59:32;96124.03;;;16.86
67966;BMP280;54749;47.850;9.002;2023-05-24T11:02:08;96129.34;;;16.93
67966;BMP280;54749;47.850;9.002;2023-05-24T11:04:40;96117.88;;;17.14
67966;BMP280;54749;47.850;9.002;2023-05-24T11:07:09;96137.31;;;16.73
67966;BMP280;54749;47.850;9.002;2023-05-24T11:09:38;96136.38;;;16.57
67966;BMP280;54749;47.850;9.002;2023-05-24T11:12:14;96122.09;;;16.30
67966;BMP280;54749;47.850;9.002;2023-05-24T11:14:48;96127.91;;;16.05
67966;BMP280;54749;47.850;9.002;2023-05-24T11:17:20;96121.78;;;15.89
67966;BMP280;54749;47.850;9.002;2023-05-24T11:19:50;96119.50;;;15.86
67966;BMP280;54749;47.850;9.002;2023-05-24T11:22:22;96120.53;;;15.93
67966;BMP280;54749;47.850;9.002;2023-05-24T11:24:53;96109.81;;;15.99
67966;BMP280;54749;47.850;9.002;2023-05-24T11:27:20;96117.47;;;16.16
67966;BMP280;54749;47.850;9.002;2023-05-24T11:29:47;96106.28;;;16.43
67966;BMP280;54749;47.850;9.002;2023-05-24T11:32:17;96116.84;;;16.48
67966;BMP280;54749;47.850;9.002;2023-05-24T11:34:48;96107.16;;;16.51
67966;BMP280;54749;47.850;9.002;2023-05-24T11:37:16;96113.75;;;16.79
67966;BMP280;54749;47.850;9.002;2023-05-24T11:39:49;96103.38;;;16.80
67966;BMP280;54749;47.850;9.002;2023-05-24T11:42:18;96107.41;;;17.00
67966;BMP280;54749;47.850;9.002;2023-05-24T11:44:47;96106.00;;;17.05
67966;BMP280;54749;47.850;9.002;2023-05-24T11:47:14;96110.78;;;16.66
67966;BMP280;54749;47.850;9.002;2023-05-24T11:49:41;96122.44;;;16.51
67966;BMP280;54749;47.850;9.002;2023-05-24T11:52:09;96120.09;;;16.41
67966;BMP280;54749;47.850;9.002;2023-05-24T11:54:36;96122.88;;;16.30
67966;BMP280;54749;47.850;9.002;2023-05-24T11:57:04;96119.34;;;16.40
67966;BMP280;54749;47.850;9.002;2023-05-24T11:59:31;96114.44;;;16.47
67966;BMP280;54749;47.850;9.002;2023-05-24T12:02:03;96119.53;;;16.64
67966;BMP280;54749;47.850;9.002;2023-05-24T12:04:32;96102.81;;;16.69
67966;BMP280;54749;47.850;9.002;2023-05-24T12:07:01;96118.91;;;16.86
67966;BMP280;54749;47.850;9.002;2023-05-24T12:09:28;96112.75;;;16.55
67966;BMP280;54749;47.850;9.002;2023-05-24T12:11:55;96131.13;;;16.41
67966;BMP280;54749;47.850;9.002;2023-05-24T12:14:29;96111.00;;;16.55
67966;BMP280;54749;47.850;9.002;2023-05-24T12:16:58;96122.31;;;16.36
67966;BMP280;54749;47.850;9.002;2023-05-24T12:19:31;96131.31;;;15.61
67966;BMP280;54749;47.850;9.002;2023-05-24T12:22:05;96118.50;;;15.53
67966;BMP280;54749;47.850;9.002;2023-05-24T12:24:33;96118.00;;;15.41
67966;BMP280;54749;47.850;9.002;2023-05-24T12:27:03;96119.56;;;15.51
67966;BMP280;54749;47.850;9.002;2023-05-24T12:29:35;96118.41;;;16.15
67966;BMP280;54749;47.850;9.002;2023-05-24T12:32:04;96123.09;;;16.70
67966;BMP280;54749;47.850;9.002;2023-05-24T12:34:32;96112.94;;;16.95
67966;BMP280;54749;47.850;9.002;2023-05-24T12:36:59;96103.94;;;17.08
67966;BMP280;54749;47.850;9.002;2023-05-24T12:39:29;96085.53;;;17.62
67966;BMP280;54749;47.850;9.002;2023-05-24T12:42:02;96078.06;;;18.17
67966;BMP280;54749;47.850;9.002;2023-05-24T12:44:36;96074.25;;;18.21
67966;BMP280;54749;47.850;9.002;2023-05-24T12:47:05;96085.41;;;18.12
67966;BMP280;54749;47.850;9.002;2023-05-24T12:49:34;96070.06;;;18.04
67966;BMP280;54749;47.850;9.002;2023-05-24T12:52:02;96079.59;;;17.87
67966;BMP280;54749;47.850;9.002;2023-05-24T12:54:29;96072.06;;;17.85
67966;BMP280;54749;47.850;9.002;2023-05-24T12:56:57;96070.91;;;17.80
67966;BMP280;54749;47.850;9.002;2023-05-24T12:59:29;96087.47;;;17.68
67966;BMP280;54749;47.850;9.002;2023-05-24T13:01:56;96087.84;;;17.16
67966;BMP280;54749;47.850;9.002;2023-05-24T13:04:23;96084.50;;;16.90
67966;BMP280;54749;47.850;9.002;2023-05-24T13:06:54;96094.66;;;16.65
67966;BMP280;54749;47.850;9.002;2023-05-24T13:09:21;96095.16;;;16.69
67966;BMP280;54749;47.850;9.002;2023-05-24T13:11:50;96094.72;;;16.90
67966;BMP280;54749;47.850;9.002;2023-05-24T13:14:18;96102.00;;;16.85
67966;BMP280;54749;47.850;9.002;2023-05-24T13:16:46;96094.13;;;16.96
67966;BMP280;54749;47.850;9.002;2023-05-24T13:19:14;96094.63;;;16.83
67966;BMP280;54749;47.850;9.002;2023-05-24T13:21:41;96086.94;;;16.75
67966;BMP280;54749;47.850;9.002;2023-05-24T13:24:08;96095.09;;;16.78
67966;BMP280;54749;47.850;9.002;2023-05-24T13:26:36;96094.38;;;16.68
67966;BMP280;54749;47.850;9.002;2023-05-24T13:29:05;96080.66;;;16.69
67966;BMP280;54749;47.850;9.002;2023-05-24T13:31:35;96091.44;;;16.64
67966;BMP280;54749;47.850;9.002;2023-05-24T13:34:04;96100.84;;;16.63
67966;BMP280;54749;47.850;9.002;2023-05-24T13:36:32;96085.25;;;16.66
67966;BMP280;54749;47.850;9.002;2023-05-24T13:38:59;96095.06;;;16.53
67966;BMP280;54749;47.850;9.002;2023-05-24T13:41:29;96096.38;;;16.23
67966;BMP280;54749;47.850;9.002;2023-05-24T13:43:57;96089.06;;;16.28
67966;BMP280;54749;47.850;9.002;2023-05-24T13:46:24;96084.50;;;16.14
67966;BMP280;54749;47.850;9.002;2023-05-24T13:48:51;96098.63;;;16.09
67966;BMP280;54749;47.850;9.002;2023-05-24T13:51:18;96096.88;;;16.10
67966;BMP280;54749;47.850;9.002;2023-05-24T13:53:46;96085.13;;;16.16
67966;BMP280;54749;47.850;9.002;2023-05-24T13:56:15;96091.53;;;16.20
67966;BMP280;54749;47.850;9.002;2023-05-24T13:58:42;96079.81;;;16.10
67966;BMP280;54749;47.850;9.002;2023-05-24T14:01:09;96078.59;;;16.31
67966;BMP280;54749;47.850;9.002;2023-05-24T14:03:36;96091.53;;;16.37
67966;BMP280;54749;47.850;9.002;2023-05-24T14:06:07;96084.19;;;16.51
67966;BMP280;54749;47.850;9.002;2023-05-24T14:08:35;96086.78;;;16.59
67966;BMP280;54749;47.850;9.002;2023-05-24T14:11:02;96091.69;;;16.53
67966;BMP280;54749;47.850;9.002;2023-05-24T14:13:29;96083.59;;;16.57
67966;BMP280;54749;47.850;9.002;2023-05-24T14:16:17;96083.88;;;16.54
67966;BMP280;54749;47.850;9.002;2023-05-24T14:18:44;96088.47;;;16.51
67966;BMP280;54749;47.850;9.002;2023-05-24T14:21:12;96093.81;;;16.40
67966;BMP280;54749;47.850;9.002;2023-05-24T14:23:39;96090.84;;;16.45
67966;BMP280;54749;47.850;9.002;2023-05-24T14:26:09;96092.34;;;16.55
67966;BMP280;54749;47.850;9.002;2023-05-24T14:28:36;96091.09;;;16.42
67966;BMP280;54749;47.850;9.002;2023-05-24T14:31:03;96092.34;;;16.55